Time;durP1;ratioP1;P1;durP2;ratioP2;P2;SDS_P1;SDS_P2;PMS_P1;PMS_P2;Temp;Humidity;BMP_temperature;BMP_pressure;BME280_temperature;BME280_humidity;BME280_pressure;Samples;Min_cycle;Max_cycle;Signal;HPM_P1;HPM_P2
2022/07/13 00:01:35;;;;;;;1.50;0.60;;;20.40;99.90;;;;;;5002095;28;20023;-68
2022/07/13 00:04:01;;;;;;;1.17;0.80;;;20.40;99.90;;;;;;5002369;28;20041;-67
2022/07/13 00:06:27;;;;;;;1.75;1.20;;;20.40;99.90;;;;;;5001746;28;20019;-67
2022/07/13 00:08:52;;;;;;;2.47;1.35;;;20.40;99.90;;;;;;5002661;28;20039;-67
2022/07/13 00:11:18;;;;;;;1.25;0.93;;;20.40;99.90;;;;;;5001719;28;20049;-69
2022/07/13 00:13:44;;;;;;;1.73;1.20;;;20.40;99.90;;;;;;5001903;28;20038;-68
2022/07/13 00:16:09;;;;;;;0.90;0.73;;;20.40;99.90;;;;;;5001167;28;20014;-67
2022/07/13 00:18:35;;;;;;;2.85;1.23;;;20.30;99.90;;;;;;5002399;28;20558;-67
2022/07/13 00:21:00;;;;;;;7.32;1.70;;;20.30;99.90;;;;;;5002075;28;20030;-68
2022/07/13 00:23:26;;;;;;;4.20;1.38;;;20.30;99.90;;;;;;5001429;28;20034;-68
2022/07/13 00:25:51;;;;;;;1.10;1.00;;;20.30;99.90;;;;;;5001490;28;20046;-69
2022/07/13 00:28:17;;;;;;;5.45;1.40;;;20.30;99.90;;;;;;5002650;28;20029;-69
2022/07/13 00:30:43;;;;;;;3.90;1.85;;;20.20;99.90;;;;;;5001581;28;20034;-70
2022/07/13 00:33:08;;;;;;;1.65;1.17;;;20.20;99.90;;;;;;5001414;28;20121;-67
2022/07/13 00:35:34;;;;;;;2.30;1.10;;;20.20;99.90;;;;;;5001844;28;20026;-69
2022/07/13 00:38:00;;;;;;;4.35;1.63;;;20.10;99.90;;;;;;5002021;28;20041;-69
2022/07/13 00:40:26;;;;;;;2.40;1.27;;;20.10;99.90;;;;;;5001761;28;20054;-67
2022/07/13 00:42:52;;;;;;;1.55;1.23;;;20.10;99.90;;;;;;5002325;28;20034;-68
2022/07/13 00:45:18;;;;;;;3.08;1.45;;;20.10;99.90;;;;;;5000673;28;20022;-67
2022/07/13 00:47:46;;;;;;;0.73;0.63;;;20.10;99.90;;;;;;5001824;28;20029;-69
2022/07/13 00:50:12;;;;;;;1.52;1.20;;;20.10;99.90;;;;;;5001434;28;20057;-68
2022/07/13 00:52:39;;;;;;;1.30;1.20;;;20.10;99.90;;;;;;5001879;28;20081;-68
2022/07/13 00:55:09;;;;;;;2.40;1.70;;;20.10;99.90;;;;;;5001405;28;20025;-68
2022/07/13 00:57:36;;;;;;;1.77;1.33;;;20.00;99.90;;;;;;5001476;28;20115;-68
2022/07/13 01:00:08;;;;;;;1.58;1.27;;;20.00;99.90;;;;;;5001707;28;20038;-67
2022/07/13 01:02:39;;;;;;;1.77;1.10;;;20.00;99.90;;;;;;5000992;28;20049;-67
2022/07/13 01:05:05;;;;;;;3.03;1.52;;;20.00;99.90;;;;;;5001775;28;20578;-67
2022/07/13 01:07:32;;;;;;;3.65;1.25;;;20.00;99.90;;;;;;5000951;28;20077;-67
2022/07/13 01:09:59;;;;;;;1.98;1.05;;;19.90;99.90;;;;;;5001671;28;20019;-68
2022/07/13 01:12:29;;;;;;;4.53;1.38;;;19.90;99.90;;;;;;4999567;28;20507;-67
2022/07/13 01:14:55;;;;;;;3.00;1.48;;;19.80;99.90;;;;;;5001221;28;20068;-68
2022/07/13 01:17:21;;;;;;;4.72;1.48;;;19.80;99.90;;;;;;5001806;28;20120;-66
2022/07/13 01:19:47;;;;;;;3.53;1.45;;;19.80;99.90;;;;;;5000900;28;20022;-67
2022/07/13 01:22:19;;;;;;;2.40;1.40;;;19.80;99.90;;;;;;5001098;28;20027;-68
2022/07/13 01:24:46;;;;;;;2.55;1.20;;;19.80;99.90;;;;;;5000847;28;20045;-70
2022/07/13 01:27:13;;;;;;;2.72;1.58;;;19.80;99.90;;;;;;5001250;28;20065;-67
2022/07/13 01:29:39;;;;;;;3.92;1.08;;;19.70;99.90;;;;;;5001755;28;20036;-66
2022/07/13 01:32:04;;;;;;;2.42;1.13;;;19.70;99.90;;;;;;5000254;28;20078;-68
2022/07/13 01:34:30;;;;;;;0.88;0.63;;;19.70;99.90;;;;;;5001286;28;20510;-67
2022/07/13 01:36:56;;;;;;;1.90;1.00;;;19.70;99.90;;;;;;5001262;28;20030;-66
2022/07/13 01:39:22;;;;;;;3.63;1.80;;;19.70;99.90;;;;;;5000877;28;20039;-69
2022/07/13 01:41:47;;;;;;;4.88;1.67;;;19.80;99.90;;;;;;5001318;28;20023;-68
2022/07/13 01:44:15;;;;;;;1.98;1.50;;;19.80;99.90;;;;;;5000637;28;20027;-68
2022/07/13 01:46:40;;;;;;;1.83;1.35;;;19.80;99.90;;;;;;5001254;28;20105;-68
2022/07/13 01:49:06;;;;;;;3.03;1.60;;;19.70;99.90;;;;;;5001584;28;20054;-66
2022/07/13 01:51:31;;;;;;;1.88;1.40;;;19.80;99.90;;;;;;5001277;28;20082;-67
2022/07/13 01:53:57;;;;;;;4.47;1.85;;;19.80;99.90;;;;;;5001423;28;20034;-70
2022/07/13 01:56:22;;;;;;;1.33;1.23;;;19.80;99.90;;;;;;5000886;28;20053;-69
2022/07/13 01:58:48;;;;;;;1.52;1.15;;;19.80;99.90;;;;;;5003609;28;20057;-66
2022/07/13 02:01:14;;;;;;;11.70;1.88;;;19.80;99.90;;;;;;5004991;28;20053;-68
2022/07/13 02:03:40;;;;;;;1.83;0.95;;;19.80;99.90;;;;;;5003234;28;20101;-68
2022/07/13 02:06:06;;;;;;;4.20;1.73;;;19.80;99.90;;;;;;5004338;28;20069;-68
2022/07/13 02:08:32;;;;;;;1.98;1.40;;;19.80;99.90;;;;;;5004692;28;20086;-68
2022/07/13 02:10:57;;;;;;;1.55;1.15;;;19.80;99.90;;;;;;5003310;28;20498;-68
2022/07/13 02:13:23;;;;;;;2.70;1.35;;;19.80;99.90;;;;;;5004053;28;20054;-69
2022/07/13 02:15:49;;;;;;;2.92;1.30;;;19.80;99.90;;;;;;5004067;28;20030;-69
2022/07/13 02:18:14;;;;;;;1.95;1.50;;;19.80;99.90;;;;;;5004489;28;20063;-67
2022/07/13 02:20:40;;;;;;;1.05;0.82;;;19.70;99.90;;;;;;5004764;28;20152;-68
2022/07/13 02:23:05;;;;;;;2.70;1.58;;;19.70;99.90;;;;;;5003421;28;20031;-68
2022/07/13 02:25:35;;;;;;;1.13;1.02;;;19.70;99.90;;;;;;5003541;28;20026;-68
2022/07/13 02:28:00;;;;;;;2.33;1.38;;;19.70;99.90;;;;;;5004332;28;20613;-68
2022/07/13 02:30:26;;;;;;;1.95;1.33;;;19.70;99.90;;;;;;5004216;28;20045;-67
2022/07/13 02:32:52;;;;;;;3.33;1.55;;;19.70;99.90;;;;;;5004115;28;20034;-68
2022/07/13 02:35:17;;;;;;;3.40;1.80;;;19.70;99.90;;;;;;5004370;28;20018;-67
2022/07/13 02:37:43;;;;;;;3.05;1.73;;;19.70;99.90;;;;;;5004510;28;20026;-69
2022/07/13 02:40:10;;;;;;;2.67;1.42;;;19.70;99.90;;;;;;5004048;28;20058;-68
2022/07/13 02:42:36;;;;;;;17.08;1.88;;;19.60;99.90;;;;;;5002890;28;20026;-66
2022/07/13 02:45:04;;;;;;;3.33;1.98;;;19.60;99.90;;;;;;5003185;28;20081;-68
2022/07/13 02:47:29;;;;;;;2.33;1.60;;;19.60;99.90;;;;;;5003891;28;20030;-68
2022/07/13 02:49:55;;;;;;;16.40;1.67;;;19.60;99.90;;;;;;5004014;28;20023;-68
2022/07/13 02:52:21;;;;;;;2.33;1.50;;;19.60;99.90;;;;;;5003686;28;20034;-67
2022/07/13 02:54:46;;;;;;;1.95;1.15;;;19.60;99.90;;;;;;5003863;28;20026;-68
2022/07/13 02:57:12;;;;;;;2.42;1.35;;;19.60;99.90;;;;;;5003825;28;20030;-68
2022/07/13 02:59:38;;;;;;;2.33;1.17;;;19.60;99.90;;;;;;5003997;28;20100;-68
2022/07/13 03:02:05;;;;;;;3.72;1.80;;;19.50;99.90;;;;;;5003832;28;20053;-69
2022/07/13 03:04:31;;;;;;;1.63;0.93;;;19.50;99.90;;;;;;5003227;28;20026;-68
2022/07/13 03:06:57;;;;;;;2.90;1.58;;;19.50;99.90;;;;;;5003603;28;20041;-67
2022/07/13 03:09:22;;;;;;;6.63;1.55;;;19.50;99.90;;;;;;5003395;28;20018;-67
2022/07/13 03:11:48;;;;;;;4.47;1.33;;;19.50;99.90;;;;;;5003605;28;20034;-68
2022/07/13 03:14:14;;;;;;;4.70;1.60;;;19.50;99.90;;;;;;5003821;28;20029;-68
2022/07/13 03:16:39;;;;;;;1.45;0.93;;;19.50;99.90;;;;;;5003863;28;20195;-68
2022/07/13 03:19:05;;;;;;;2.50;1.33;;;19.50;99.90;;;;;;5002844;28;20057;-68
2022/07/13 03:21:30;;;;;;;1.80;1.05;;;19.50;99.90;;;;;;5003551;28;20026;-67
2022/07/13 03:23:56;;;;;;;3.78;2.00;;;19.50;99.90;;;;;;5002706;28;20064;-67
2022/07/13 03:26:23;;;;;;;6.45;1.35;;;19.40;99.90;;;;;;5003138;28;20026;-69
2022/07/13 03:28:49;;;;;;;1.90;1.33;;;19.40;99.90;;;;;;5003206;28;20032;-68
2022/07/13 03:31:15;;;;;;;2.53;1.48;;;19.40;99.90;;;;;;5002189;28;20030;-68
2022/07/13 03:33:41;;;;;;;2.30;1.42;;;19.50;99.90;;;;;;5003336;28;20040;-69
2022/07/13 03:36:07;;;;;;;1.83;1.33;;;19.40;99.90;;;;;;5003018;28;20034;-68
2022/07/13 03:38:33;;;;;;;3.17;1.73;;;19.50;99.90;;;;;;5002721;28;20051;-67
2022/07/13 03:40:59;;;;;;;2.70;1.65;;;19.50;99.90;;;;;;5002210;28;20061;-70
2022/07/13 03:43:25;;;;;;;2.55;1.58;;;19.40;99.90;;;;;;5003156;28;20050;-67
2022/07/13 03:45:52;;;;;;;3.42;1.92;;;19.40;99.90;;;;;;5003031;28;20077;-67
2022/07/13 03:48:18;;;;;;;3.08;1.65;;;19.40;99.90;;;;;;5002518;28;20022;-67
2022/07/13 03:50:45;;;;;;;4.55;1.50;;;19.40;99.90;;;;;;5001973;28;20073;-68
2022/07/13 03:53:11;;;;;;;4.00;1.73;;;19.40;99.90;;;;;;5003219;28;20137;-67
2022/07/13 03:55:38;;;;;;;2.88;1.58;;;19.40;99.90;;;;;;5002307;28;20026;-68
2022/07/13 03:58:04;;;;;;;5.60;2.13;;;19.40;99.90;;;;;;5002763;28;20049;-68
2022/07/13 04:00:30;;;;;;;2.70;2.03;;;19.40;99.90;;;;;;5002251;28;20034;-67
2022/07/13 04:02:57;;;;;;;1.20;1.10;;;19.40;99.90;;;;;;5002525;28;20026;-68
2022/07/13 04:05:23;;;;;;;2.90;1.48;;;19.40;99.90;;;;;;5002503;28;20030;-69
2022/07/13 04:07:48;;;;;;;2.20;1.27;;;19.40;99.90;;;;;;5002209;28;20508;-68
2022/07/13 04:10:14;;;;;;;4.00;1.60;;;19.40;99.90;;;;;;5002912;28;20014;-69
2022/07/13 04:12:43;;;;;;;3.08;1.88;;;19.40;99.90;;;;;;5002628;28;20030;-68
2022/07/13 04:15:09;;;;;;;2.95;1.65;;;19.40;99.90;;;;;;5002356;28;20023;-67
2022/07/13 04:17:35;;;;;;;4.20;1.55;;;19.40;99.90;;;;;;5001878;28;20018;-69
2022/07/13 04:20:00;;;;;;;3.20;1.35;;;19.40;99.90;;;;;;5000966;28;20022;-68
2022/07/13 04:22:26;;;;;;;1.70;1.20;;;19.40;99.90;;;;;;5001102;28;20025;-67
2022/07/13 04:24:52;;;;;;;2.80;1.13;;;19.40;99.90;;;;;;5002409;28;20030;-67
2022/07/13 04:27:17;;;;;;;2.58;1.17;;;19.30;99.90;;;;;;5001832;28;20026;-69
2022/07/13 04:29:43;;;;;;;2.03;1.15;;;19.40;99.90;;;;;;5002446;28;20035;-68
2022/07/13 04:32:09;;;;;;;2.15;1.42;;;19.40;99.90;;;;;;5002136;28;20034;-68
2022/07/13 04:34:34;;;;;;;3.97;1.42;;;19.40;99.90;;;;;;5002131;28;20041;-67
2022/07/13 04:37:00;;;;;;;2.60;1.10;;;19.40;99.90;;;;;;5001293;28;20365;-68
2022/07/13 04:39:26;;;;;;;2.08;1.20;;;19.40;99.90;;;;;;5001151;28;20514;-68
2022/07/13 04:41:51;;;;;;;3.63;1.20;;;19.50;99.90;;;;;;5000913;28;20090;-68
2022/07/13 04:44:19;;;;;;;5.38;1.85;;;19.50;99.90;;;;;;5001191;28;20073;-68
2022/07/13 04:46:45;;;;;;;9.27;1.70;;;19.50;99.90;;;;;;5001816;28;20023;-67
2022/07/13 04:49:11;;;;;;;2.75;1.73;;;19.60;99.90;;;;;;5001816;28;20030;-67
2022/07/13 04:51:36;;;;;;;1.83;1.27;;;19.60;99.90;;;;;;5001330;28;20434;-67
2022/07/13 04:54:02;;;;;;;7.72;1.27;;;19.60;99.90;;;;;;5000167;28;20034;-67
2022/07/13 04:56:28;;;;;;;1.90;1.17;;;19.60;99.90;;;;;;5001532;28;20030;-66
2022/07/13 04:58:54;;;;;;;2.25;1.52;;;19.70;99.90;;;;;;5000631;28;20376;-67
2022/07/13 05:01:19;;;;;;;2.75;1.77;;;19.70;99.90;;;;;;4998166;28;20034;-67
2022/07/13 05:03:45;;;;;;;3.05;1.60;;;19.70;99.90;;;;;;5000632;28;20022;-66
2022/07/13 05:06:13;;;;;;;1.95;1.23;;;19.80;99.90;;;;;;4999872;28;20038;-67
2022/07/13 05:08:39;;;;;;;2.90;1.60;;;19.80;99.90;;;;;;5000491;28;20061;-66
2022/07/13 05:11:05;;;;;;;2.88;1.90;;;19.90;99.90;;;;;;5001100;28;20038;-66
2022/07/13 05:13:31;;;;;;;1.83;1.38;;;19.90;99.90;;;;;;4999269;28;20026;-67
2022/07/13 05:15:57;;;;;;;4.15;2.05;;;20.00;99.90;;;;;;5001440;28;20027;-66
2022/07/13 05:18:23;;;;;;;1.50;1.38;;;20.10;99.90;;;;;;5000403;28;20085;-69
2022/07/13 05:20:48;;;;;;;5.25;1.38;;;20.10;99.90;;;;;;4997708;28;20032;-68
2022/07/13 05:23:14;;;;;;;2.15;1.45;;;20.10;99.90;;;;;;5000216;28;20094;-68
2022/07/13 05:25:39;;;;;;;2.28;1.50;;;20.10;99.90;;;;;;5000841;28;20030;-67
2022/07/13 05:28:05;;;;;;;2.65;1.75;;;20.20;99.90;;;;;;5000719;28;20021;-67
2022/07/13 05:30:31;;;;;;;1.92;1.45;;;20.30;99.90;;;;;;5000550;28;20050;-68
2022/07/13 05:32:56;;;;;;;3.83;1.70;;;20.30;99.90;;;;;;5002863;28;20034;-67
2022/07/13 05:35:22;;;;;;;1.67;1.58;;;20.30;99.90;;;;;;5003851;28;20046;-67
2022/07/13 05:37:48;;;;;;;3.30;1.80;;;20.30;99.90;;;;;;5002417;28;20498;-68
2022/07/13 05:40:14;;;;;;;3.08;1.70;;;20.40;99.90;;;;;;5003194;28;20133;-69
2022/07/13 05:42:40;;;;;;;5.18;2.58;;;20.50;99.90;;;;;;5004708;28;20057;-67
2022/07/13 05:45:06;;;;;;;1.90;1.60;;;20.50;99.90;;;;;;5004103;28;20045;-67
2022/07/13 05:47:31;;;;;;;8.85;1.85;;;20.50;99.90;;;;;;5004527;28;20680;-68
2022/07/13 05:49:57;;;;;;;1.98;1.33;;;20.60;99.90;;;;;;5004549;28;20030;-68
2022/07/13 05:52:24;;;;;;;3.03;1.30;;;20.60;99.90;;;;;;5004605;28;20081;-67
2022/07/13 05:54:50;;;;;;;2.92;1.83;;;20.60;99.90;;;;;;5004337;28;20030;-67
2022/07/13 05:57:16;;;;;;;11.73;1.50;;;20.70;99.90;;;;;;5005216;28;20046;-67
2022/07/13 05:59:41;;;;;;;3.75;1.83;;;20.80;99.90;;;;;;5005099;28;20031;-67
2022/07/13 06:02:07;;;;;;;2.83;1.30;;;20.80;99.90;;;;;;5004860;28;21833;-67
2022/07/13 06:04:32;;;;;;;1.65;1.25;;;20.80;99.90;;;;;;5004087;28;20030;-68
2022/07/13 06:06:58;;;;;;;2.80;1.40;;;20.80;99.90;;;;;;5003616;28;20338;-67
2022/07/13 06:09:24;;;;;;;2.22;1.60;;;20.90;99.90;;;;;;5003952;28;20033;-67
2022/07/13 06:11:49;;;;;;;2.83;1.73;;;21.00;99.90;;;;;;5001512;28;20062;-67
2022/07/13 06:14:15;;;;;;;3.13;1.80;;;21.00;99.90;;;;;;5003226;28;20034;-68
2022/07/13 06:16:40;;;;;;;2.33;1.38;;;21.00;99.90;;;;;;5003461;28;20038;-67
2022/07/13 06:19:06;;;;;;;4.25;1.60;;;21.10;99.90;;;;;;5001292;28;20022;-68
2022/07/13 06:21:32;;;;;;;2.42;1.58;;;21.10;99.90;;;;;;5000775;28;20032;-68
2022/07/13 06:23:58;;;;;;;2.15;1.52;;;21.20;99.90;;;;;;5003047;28;20033;-68
2022/07/13 06:26:23;;;;;;;1.70;1.25;;;21.20;99.90;;;;;;4998525;28;20058;-67
2022/07/13 06:28:49;;;;;;;4.32;1.88;;;21.30;99.90;;;;;;5003514;28;20037;-67
2022/07/13 06:31:16;;;;;;;1.83;1.25;;;21.30;99.90;;;;;;5002971;28;20038;-70
2022/07/13 06:33:41;;;;;;;2.33;1.60;;;21.30;99.90;;;;;;5001741;28;20033;-68
2022/07/13 06:36:08;;;;;;;1.50;1.30;;;21.40;99.90;;;;;;5000107;28;20027;-69
2022/07/13 06:38:34;;;;;;;2.65;1.75;;;21.40;99.90;;;;;;4999499;28;20054;-69
2022/07/13 06:40:59;;;;;;;1.88;1.45;;;21.50;99.90;;;;;;5001125;28;20042;-69
2022/07/13 06:43:25;;;;;;;2.22;1.42;;;21.50;99.90;;;;;;4998958;28;20077;-67
2022/07/13 06:45:51;;;;;;;15.45;1.60;;;21.50;99.90;;;;;;5001994;28;20030;-68
2022/07/13 06:48:17;;;;;;;3.00;1.40;;;21.50;99.90;;;;;;5000481;28;20018;-68
2022/07/13 06:50:42;;;;;;;1.42;1.20;;;21.60;99.90;;;;;;5000559;28;23299;-68
2022/07/13 06:53:08;;;;;;;9.50;1.70;;;21.60;99.90;;;;;;5000163;28;20040;-67
2022/07/13 06:55:34;;;;;;;7.70;1.48;;;21.60;99.90;;;;;;5003380;28;20041;-68
2022/07/13 06:58:00;;;;;;;5.18;1.38;;;21.70;99.90;;;;;;5003428;28;20030;-68
2022/07/13 07:00:26;;;;;;;4.20;1.15;;;21.70;99.90;;;;;;5000779;28;20057;-68
2022/07/13 07:02:51;;;;;;;1.05;0.95;;;21.80;99.90;;;;;;5001356;28;20034;-67
2022/07/13 07:05:17;;;;;;;1.48;1.17;;;21.80;99.90;;;;;;5003112;28;20036;-68
2022/07/13 07:07:43;;;;;;;2.40;0.88;;;21.80;99.90;;;;;;5002940;28;20053;-67
2022/07/13 07:10:09;;;;;;;8.32;1.52;;;21.90;99.90;;;;;;5002929;28;20015;-68
2022/07/13 07:12:35;;;;;;;1.42;1.23;;;22.00;99.90;;;;;;5003541;28;20050;-68
2022/07/13 07:15:02;;;;;;;1.02;0.70;;;22.00;99.90;;;;;;5002329;28;20034;-68
2022/07/13 07:17:28;;;;;;;4.38;1.05;;;22.00;99.90;;;;;;5003292;28;20022;-68
2022/07/13 07:20:03;;;;;;;2.80;1.65;;;22.10;99.90;;;;;;5000789;28;20032;-69
2022/07/13 07:22:29;;;;;;;3.47;1.38;;;22.20;99.90;;;;;;5002193;28;20081;-70
2022/07/13 07:24:56;;;;;;;4.65;1.23;;;22.20;99.90;;;;;;5003704;28;20022;-68
2022/07/13 07:27:22;;;;;;;1.45;0.85;;;22.20;99.90;;;;;;5002579;28;20053;-68
2022/07/13 07:29:48;;;;;;;1.40;0.90;;;22.20;99.90;;;;;;5003189;28;20034;-68
2022/07/13 07:32:13;;;;;;;1.30;1.05;;;22.20;99.90;;;;;;5000558;28;20101;-70
2022/07/13 07:34:39;;;;;;;2.42;1.23;;;22.20;99.90;;;;;;5002361;28;20094;-68
2022/07/13 07:37:04;;;;;;;3.70;1.40;;;22.30;99.90;;;;;;5001509;28;20031;-68
2022/07/13 07:39:30;;;;;;;2.60;1.13;;;22.30;99.90;;;;;;5000884;28;20113;-69
2022/07/13 07:41:55;;;;;;;3.47;1.42;;;22.30;99.90;;;;;;5000506;28;20085;-69
2022/07/13 07:44:21;;;;;;;2.25;1.60;;;22.30;99.90;;;;;;5001750;28;20039;-68
2022/07/13 07:46:47;;;;;;;3.58;1.42;;;22.30;99.90;;;;;;5002066;28;20026;-67
2022/07/13 07:49:13;;;;;;;0.82;0.68;;;22.30;99.90;;;;;;5002607;28;20030;-67
2022/07/13 07:51:39;;;;;;;1.50;1.17;;;22.40;99.90;;;;;;5001881;28;20095;-66
2022/07/13 07:54:05;;;;;;;2.90;1.13;;;22.30;99.90;;;;;;5000369;28;20030;-66
2022/07/13 07:56:31;;;;;;;2.45;1.10;;;22.40;99.90;;;;;;5001897;28;20196;-66
2022/07/13 07:58:57;;;;;;;1.65;1.08;;;22.40;99.90;;;;;;5000625;28;20018;-67
2022/07/13 08:01:23;;;;;;;1.85;1.10;;;22.40;99.90;;;;;;5001363;28;20062;-66
2022/07/13 08:03:49;;;;;;;2.45;1.30;;;22.40;99.90;;;;;;5000500;28;20049;-67
2022/07/13 08:06:16;;;;;;;10.52;1.35;;;22.50;99.90;;;;;;5001114;28;20065;-67
2022/07/13 08:08:41;;;;;;;0.85;0.70;;;22.50;99.90;;;;;;5002820;28;20049;-67
2022/07/13 08:11:09;;;;;;;1.55;0.90;;;22.60;99.90;;;;;;5000403;28;20042;-66
2022/07/13 08:13:35;;;;;;;1.25;1.05;;;22.60;99.90;;;;;;5000786;28;20711;-68
2022/07/13 08:16:02;;;;;;;2.42;1.00;;;22.70;99.90;;;;;;5002630;28;20082;-67
2022/07/13 08:18:28;;;;;;;0.93;0.70;;;22.70;99.90;;;;;;5000715;28;20022;-67
2022/07/13 08:20:53;;;;;;;2.08;1.10;;;22.80;99.90;;;;;;5001477;28;20069;-69
2022/07/13 08:26:03;;;;;;;3.72;1.20;;;22.80;99.90;;;;;;4999302;28;20049;-66
2022/07/13 08:28:29;;;;;;;7.63;1.25;;;22.80;99.90;;;;;;5000057;28;20069;-65
2022/07/13 08:30:55;;;;;;;7.82;1.40;;;22.90;99.90;;;;;;5000722;28;20042;-65
2022/07/13 08:38:34;;;;;;;5.25;1.30;;;22.90;99.90;;;;;;5000608;28;20038;-65
2022/07/13 08:38:50;;;;;;;7.68;1.13;;;23.00;99.90;;;;;;4998223;28;20069;-66
2022/07/13 08:41:16;;;;;;;1.80;1.13;;;23.10;99.90;;;;;;4999726;28;21336;-69
2022/07/13 08:43:42;;;;;;;1.38;0.85;;;23.10;99.90;;;;;;5001128;28;20530;-66
2022/07/13 08:46:08;;;;;;;2.90;1.48;;;23.20;99.90;;;;;;5000382;28;20049;-66
2022/07/13 08:48:38;;;;;;;3.65;1.40;;;23.30;99.90;;;;;;5001572;28;20054;-67
2022/07/13 08:51:05;;;;;;;6.60;1.63;;;23.40;99.90;;;;;;4998110;28;20604;-65
2022/07/13 08:53:30;;;;;;;5.15;1.60;;;23.50;99.90;;;;;;4997693;28;20057;-67
2022/07/13 08:55:57;;;;;;;1.50;0.88;;;23.50;99.90;;;;;;4998985;28;20031;-68
2022/07/13 08:58:22;;;;;;;2.65;1.48;;;23.60;99.90;;;;;;4998615;28;20038;-68
2022/07/13 09:00:49;;;;;;;2.50;1.52;;;23.70;99.90;;;;;;5000941;28;20026;-66
2022/07/13 09:03:15;;;;;;;2.45;1.30;;;23.70;99.90;;;;;;5001430;28;20479;-66
2022/07/13 09:05:41;;;;;;;2.65;1.50;;;23.80;99.90;;;;;;4999588;28;20073;-67
2022/07/13 09:08:09;;;;;;;2.70;1.67;;;23.90;99.90;;;;;;5005126;28;20022;-66
2022/07/13 09:10:53;;;;;;;4.72;1.80;;;23.90;99.90;;;;;;5004474;28;20057;-66
2022/07/13 09:13:44;;;;;;;2.95;1.55;;;24.00;99.90;;;;;;5005853;28;20069;-68
2022/07/13 09:16:13;;;;;;;2.97;1.52;;;24.00;99.90;;;;;;5002837;28;20065;-68
2022/07/13 09:18:40;;;;;;;3.70;1.75;;;24.00;99.90;;;;;;5004017;28;20395;-65
2022/07/13 09:21:06;;;;;;;2.58;1.83;;;24.00;99.90;;;;;;5004032;28;20101;-67
2022/07/13 09:23:32;;;;;;;4.07;2.05;;;24.10;99.90;;;;;;5005326;28;20027;-68
2022/07/13 09:25:58;;;;;;;3.13;1.90;;;24.20;99.90;;;;;;5001494;28;20065;-68
2022/07/13 09:28:24;;;;;;;5.05;2.15;;;24.30;99.90;;;;;;5003905;28;20038;-70
2022/07/13 09:30:50;;;;;;;5.80;2.28;;;24.40;99.90;;;;;;5004894;28;20053;-67
2022/07/13 09:33:34;;;;;;;3.45;2.33;;;24.40;99.90;;;;;;5004236;28;20022;-69
2022/07/13 09:36:09;;;;;;;2.83;1.40;;;24.60;99.90;;;;;;5003441;28;20026;-66
2022/07/13 09:38:37;;;;;;;3.05;1.80;;;24.70;99.90;;;;;;5003754;28;20290;-68
2022/07/13 09:41:18;;;;;;;4.35;1.95;;;24.80;99.90;;;;;;5003964;28;20046;-67
2022/07/13 09:46:53;;;;;;;3.03;1.60;;;25.10;99.90;;;;;;5005447;28;20110;-68
2022/07/13 09:49:32;;;;;;;3.47;2.20;;;25.20;99.90;;;;;;5004138;28;20691;-68
2022/07/13 09:51:59;;;;;;;9.18;2.22;;;25.30;99.90;;;;;;4997502;28;20026;-66
2022/07/13 09:54:30;;;;;;;2.53;1.85;;;25.40;99.90;;;;;;5004841;28;20030;-66
2022/07/13 09:57:00;;;;;;;6.43;2.28;;;25.50;99.90;;;;;;5003447;28;20030;-66
2022/07/13 09:59:28;;;;;;;2.85;2.10;;;25.60;99.90;;;;;;5004659;28;20031;-66
2022/07/13 10:01:54;;;;;;;4.93;2.10;;;25.70;99.90;;;;;;5001053;28;20026;-66
2022/07/13 10:04:20;;;;;;;3.88;2.17;;;25.80;99.90;;;;;;5004501;28;20038;-69
2022/07/13 10:06:46;;;;;;;6.50;2.50;;;25.90;99.90;;;;;;5002595;28;20077;-66
2022/07/13 10:09:12;;;;;;;2.88;2.05;;;25.90;99.90;;;;;;5004586;28;20030;-70
2022/07/13 10:11:38;;;;;;;6.97;2.83;;;26.00;99.90;;;;;;5004223;28;20027;-70
2022/07/13 10:14:04;;;;;;;2.42;1.75;;;26.10;99.90;;;;;;5002753;28;20034;-67
2022/07/13 10:16:31;;;;;;;6.40;2.95;;;26.10;99.90;;;;;;5003157;28;20022;-70
2022/07/13 10:19:03;;;;;;;4.43;2.33;;;26.20;99.90;;;;;;5002577;28;20031;-68
2022/07/13 10:21:56;;;;;;;3.35;2.03;;;26.30;99.90;;;;;;5004049;28;20022;-67
2022/07/13 10:24:25;;;;;;;4.13;2.30;;;26.40;99.90;;;;;;5003523;28;20491;-68
2022/07/13 10:26:51;;;;;;;4.45;2.10;;;26.50;99.90;;;;;;5003427;28;20074;-69
2022/07/13 10:29:17;;;;;;;3.30;1.95;;;26.70;99.90;;;;;;5004810;28;20030;-70
2022/07/13 10:31:43;;;;;;;2.97;1.50;;;26.80;99.90;;;;;;5003037;28;20553;-68
2022/07/13 10:34:12;;;;;;;3.92;2.08;;;26.90;99.90;;;;;;5003543;28;20057;-68
2022/07/13 10:36:56;;;;;;;2.35;2.00;;;26.90;99.90;;;;;;5003270;28;20061;-66
2022/07/13 10:39:27;;;;;;;2.45;1.67;;;27.00;99.90;;;;;;5003162;28;20050;-67
2022/07/13 10:41:56;;;;;;;1.58;1.40;;;27.10;99.90;;;;;;5003306;28;20037;-70
2022/07/13 10:44:38;;;;;;;3.63;1.98;;;27.10;99.90;;;;;;5003655;28;20034;-69
2022/07/13 10:47:06;;;;;;;2.58;1.55;;;27.10;99.90;;;;;;5002596;28;20125;-66
2022/07/13 10:49:32;;;;;;;4.82;2.00;;;27.20;99.90;;;;;;5003926;28;20022;-70
2022/07/13 10:52:19;;;;;;;5.47;1.70;;;27.30;99.90;;;;;;5002214;28;20034;-66
2022/07/13 10:55:03;;;;;;;2.60;1.70;;;27.40;99.90;;;;;;5004011;28;20035;-67
2022/07/13 10:57:39;;;;;;;3.67;1.63;;;27.40;99.90;;;;;;5003431;28;20308;-68
2022/07/13 11:00:18;;;;;;;3.55;1.75;;;27.40;99.90;;;;;;5002850;28;20034;-65
2022/07/13 11:02:48;;;;;;;2.05;1.55;;;27.40;99.90;;;;;;5003745;28;20045;-68
2022/07/13 11:05:17;;;;;;;2.28;1.38;;;27.50;99.90;;;;;;5003390;28;20030;-65
2022/07/13 11:07:44;;;;;;;1.92;1.58;;;27.60;99.90;;;;;;5002670;28;20029;-68
2022/07/13 11:10:33;;;;;;;4.07;1.42;;;27.80;99.90;;;;;;5003573;28;20064;-65
2022/07/13 11:13:03;;;;;;;2.67;1.70;;;27.90;99.90;;;;;;5002986;28;20041;-69
2022/07/13 11:15:52;;;;;;;2.88;1.83;;;28.10;99.90;;;;;;5003462;28;20027;-65
2022/07/13 11:18:21;;;;;;;2.47;1.50;;;28.20;99.90;;;;;;5003835;28;20049;-68
2022/07/13 11:21:01;;;;;;;2.80;1.45;;;28.20;99.90;;;;;;5002739;28;20399;-67
2022/07/13 11:26:52;;;;;;;2.20;1.50;;;28.50;99.90;;;;;;5002962;28;20041;-69
2022/07/13 11:29:45;;;;;;;3.33;1.45;;;28.60;99.90;;;;;;5002979;28;20037;-71
2022/07/13 11:32:11;;;;;;;3.50;1.80;;;28.70;99.90;;;;;;5002259;28;20030;-70
2022/07/13 11:34:37;;;;;;;2.17;1.50;;;28.70;99.90;;;;;;5002937;28;20117;-66
2022/07/13 11:37:04;;;;;;;2.38;1.20;;;28.70;99.90;;;;;;5003363;28;20041;-67
2022/07/13 11:39:31;;;;;;;3.03;1.52;;;28.80;99.90;;;;;;5002248;28;20042;-68
2022/07/13 11:42:07;;;;;;;3.05;1.55;;;28.80;99.90;;;;;;5002570;28;20068;-68
2022/07/13 11:44:34;;;;;;;2.60;1.30;;;28.80;99.90;;;;;;5002129;28;20022;-67
2022/07/13 11:47:11;;;;;;;1.88;1.35;;;28.60;99.90;;;;;;5002028;28;20037;-68
2022/07/13 11:49:48;;;;;;;6.15;1.92;;;28.40;99.90;;;;;;5000540;28;20077;-67
2022/07/13 11:52:29;;;;;;;3.60;2.15;;;28.40;99.90;;;;;;5000552;28;20038;-68
2022/07/13 11:55:03;;;;;;;2.55;1.70;;;28.20;99.90;;;;;;5002518;28;20037;-67
2022/07/13 11:57:30;;;;;;;;;;;28.10;99.90;;;;;;5003171;28;20026;-69
2022/07/13 12:00:05;;;;;;;3.50;1.45;;;27.90;99.90;;;;;;5002454;28;19905;-66
2022/07/13 12:02:30;;;;;;;1.98;1.27;;;27.90;99.90;;;;;;5001930;28;20400;-67
2022/07/13 12:04:56;;;;;;;3.25;1.52;;;28.10;99.90;;;;;;5002064;28;20042;-67
2022/07/13 12:07:24;;;;;;;3.83;1.65;;;28.30;99.90;;;;;;5002525;28;20033;-66
2022/07/13 12:09:53;;;;;;;4.35;1.50;;;28.50;99.90;;;;;;5001728;28;20029;-69
2022/07/13 12:12:21;;;;;;;2.20;1.35;;;28.50;99.90;;;;;;5002010;28;20082;-68
2022/07/13 12:14:48;;;;;;;2.08;1.35;;;28.40;99.90;;;;;;5000980;28;20045;-67
2022/07/13 12:17:14;;;;;;;2.22;1.42;;;28.50;99.90;;;;;;5001632;28;20026;-73
2022/07/13 12:19:40;;;;;;;2.67;1.52;;;28.30;99.90;;;;;;5001602;28;20039;-66
2022/07/13 12:22:07;;;;;;;1.55;1.02;;;28.20;99.90;;;;;;5001435;28;20026;-69
2022/07/13 12:24:33;;;;;;;1.77;1.00;;;28.00;99.90;;;;;;5001024;28;20077;-67
2022/07/13 12:26:59;;;;;;;1.63;1.00;;;27.80;99.90;;;;;;5001612;28;20033;-67
2022/07/13 12:29:34;;;;;;;1.67;1.10;;;27.80;99.90;;;;;;5001588;28;20049;-67
2022/07/13 12:32:02;;;;;;;1.10;1.00;;;27.70;99.90;;;;;;5000589;28;20034;-67
2022/07/13 12:34:29;;;;;;;1.23;1.00;;;27.80;99.90;;;;;;5002102;28;20081;-70
2022/07/13 12:36:55;;;;;;;8.73;1.30;;;28.00;99.90;;;;;;5001672;28;20030;-63
2022/07/13 12:39:34;;;;;;;1.67;1.10;;;28.30;99.90;;;;;;5001216;28;20157;-65
2022/07/13 12:42:01;;;;;;;6.18;2.40;;;28.60;99.90;;;;;;4993942;28;20023;-66
2022/07/13 12:44:29;;;;;;;9.02;1.90;;;28.50;99.90;;;;;;4991935;28;20031;-68
2022/07/13 12:46:56;;;;;;;7.50;1.80;;;28.20;99.90;;;;;;4999648;28;20050;-66
2022/07/13 12:49:42;;;;;;;5.80;2.50;;;28.10;99.90;;;;;;5001966;28;20022;-68
2022/07/13 12:52:11;;;;;;;3.22;2.10;;;28.00;99.90;;;;;;5001096;28;20038;-66
2022/07/13 12:54:50;;;;;;;5.97;3.10;;;28.00;99.90;;;;;;5000235;28;20030;-70
2022/07/13 12:57:26;;;;;;;3.90;2.00;;;27.90;99.90;;;;;;5001326;28;20046;-68
2022/07/13 13:00:11;;;;;;;3.67;1.98;;;28.00;99.90;;;;;;4999363;28;20069;-67
2022/07/13 13:02:40;;;;;;;4.88;3.17;;;28.30;99.90;;;;;;4998958;28;20062;-70